Time;durP1;ratioP1;P1;durP2;ratioP2;P2;SDS_P1;SDS_P2;PMS_P1;PMS_P2;Temp;Humidity;BMP_temperature;BMP_pressure;BME280_temperature;BME280_humidity;BME280_pressure;Samples;Min_cycle;Max_cycle;Signal;HPM_P1;HPM_P2
2022/07/08 00:00:17;;;;;;;17.60;15.90;;;13.00;99.90;;;;;;5011078;28;20566;-71
2022/07/08 00:02:44;;;;;;;17.98;16.08;;;13.00;99.90;;;;;;5021394;28;20140;-72
2022/07/08 00:05:11;;;;;;;19.15;15.95;;;13.00;99.90;;;;;;5006581;28;20100;-72
2022/07/08 00:07:38;;;;;;;17.88;15.80;;;12.90;99.90;;;;;;5008282;28;20104;-72
2022/07/08 00:10:06;;;;;;;18.88;16.80;;;12.90;99.90;;;;;;5026903;28;20049;-72
2022/07/08 00:12:34;;;;;;;22.02;16.00;;;13.00;99.90;;;;;;5003685;28;20492;-72
2022/07/08 00:15:01;;;;;;;21.17;16.42;;;12.90;99.90;;;;;;5020982;28;20061;-73
2022/07/08 00:17:28;;;;;;;17.83;16.25;;;12.90;99.90;;;;;;5019985;28;20669;-72
2022/07/08 00:19:55;;;;;;;18.95;15.90;;;12.90;99.90;;;;;;5022545;28;20041;-72
2022/07/08 00:22:22;;;;;;;19.35;16.02;;;12.90;99.90;;;;;;5008555;28;20041;-72
2022/07/08 00:24:49;;;;;;;20.40;17.25;;;12.90;99.90;;;;;;5006642;28;20057;-72
2022/07/08 00:27:16;;;;;;;20.52;16.60;;;12.90;99.90;;;;;;5019730;28;20096;-72
2022/07/08 00:29:43;;;;;;;18.80;17.00;;;12.90;99.90;;;;;;4987852;28;20049;-73
2022/07/08 00:32:10;;;;;;;18.00;16.27;;;12.90;99.90;;;;;;5003004;28;20046;-72
2022/07/08 00:34:37;;;;;;;20.33;16.48;;;13.00;99.90;;;;;;5005480;28;21377;-72
2022/07/08 00:37:03;;;;;;;21.60;15.60;;;13.00;99.90;;;;;;5006574;28;20491;-73
2022/07/08 00:39:30;;;;;;;21.60;17.05;;;13.00;99.90;;;;;;4998559;28;20049;-72
2022/07/08 00:41:57;;;;;;;20.05;16.05;;;13.00;99.90;;;;;;5037332;28;20055;-72
2022/07/08 00:44:24;;;;;;;18.52;16.40;;;13.00;99.90;;;;;;5006941;28;20049;-72
2022/07/08 00:46:52;;;;;;;21.55;16.73;;;13.00;99.90;;;;;;5030119;28;20049;-71
2022/07/08 00:49:19;;;;;;;22.48;16.50;;;13.00;99.90;;;;;;5041740;28;20344;-71
2022/07/08 00:51:46;;;;;;;22.75;16.30;;;12.90;99.90;;;;;;5036539;28;20049;-73
2022/07/08 00:54:16;;;;;;;22.80;16.50;;;12.90;99.90;;;;;;5028225;28;20573;-72
2022/07/08 00:56:43;;;;;;;22.63;16.63;;;12.80;99.90;;;;;;5009769;28;20041;-72
2022/07/08 00:59:11;;;;;;;22.20;16.40;;;12.80;99.90;;;;;;5023698;28;20423;-73
2022/07/08 01:01:38;;;;;;;17.95;16.30;;;12.70;99.90;;;;;;5014429;28;20053;-73
2022/07/08 01:04:05;;;;;;;20.42;17.35;;;12.80;99.90;;;;;;5017977;28;20045;-72
2022/07/08 01:06:33;;;;;;;21.05;16.70;;;12.80;99.90;;;;;;5009877;28;20454;-72
2022/07/08 01:09:01;;;;;;;19.98;16.75;;;12.80;99.90;;;;;;5000600;28;20065;-72
2022/07/08 01:11:28;;;;;;;20.40;17.10;;;12.80;99.90;;;;;;5003027;28;20072;-72
2022/07/08 01:13:55;;;;;;;21.55;16.80;;;12.90;99.90;;;;;;5009687;28;20049;-72
2022/07/08 01:16:22;;;;;;;21.30;16.90;;;12.90;99.90;;;;;;5016843;28;20041;-72
2022/07/08 01:18:48;;;;;;;19.60;17.45;;;12.90;99.90;;;;;;5019833;28;20103;-72
2022/07/08 01:21:15;;;;;;;22.77;17.70;;;12.80;99.90;;;;;;5008031;28;20047;-72
2022/07/08 01:23:42;;;;;;;21.40;18.40;;;12.80;99.90;;;;;;5016986;28;20096;-72
2022/07/08 01:26:11;;;;;;;25.17;17.00;;;12.80;99.90;;;;;;5017967;28;20045;-73
2022/07/08 01:28:40;;;;;;;18.98;17.10;;;12.80;99.90;;;;;;5017980;28;20049;-71
2022/07/08 01:31:07;;;;;;;19.27;16.63;;;12.70;99.90;;;;;;5017919;28;20037;-72
2022/07/08 01:33:34;;;;;;;20.02;16.80;;;12.70;99.90;;;;;;4999331;28;20053;-72
2022/07/08 01:36:01;;;;;;;21.08;17.15;;;12.70;99.90;;;;;;5016909;28;20395;-72
2022/07/08 01:38:28;;;;;;;18.17;16.42;;;12.70;99.90;;;;;;5017086;28;20056;-72
2022/07/08 01:40:55;;;;;;;18.67;16.75;;;12.80;99.90;;;;;;5016647;28;20043;-72
2022/07/08 01:43:22;;;;;;;23.20;17.88;;;12.80;99.90;;;;;;5008501;28;20113;-72
2022/07/08 01:45:49;;;;;;;19.02;17.38;;;12.80;99.90;;;;;;5008323;28;20465;-72
2022/07/08 01:48:16;;;;;;;17.80;16.13;;;12.70;99.90;;;;;;5018873;28;20108;-73
2022/07/08 01:50:43;;;;;;;18.83;17.20;;;12.80;99.90;;;;;;5006312;28;20045;-72
2022/07/08 01:53:11;;;;;;;21.95;17.98;;;12.80;99.90;;;;;;5017298;28;20499;-72
2022/07/08 01:55:38;;;;;;;23.02;17.52;;;12.80;99.90;;;;;;5010957;28;20132;-72
2022/07/08 01:58:05;;;;;;;19.27;17.40;;;12.70;99.90;;;;;;5017401;28;20099;-71
2022/07/08 02:00:32;;;;;;;18.73;17.02;;;12.70;99.90;;;;;;5007681;28;20052;-72
2022/07/08 02:02:59;;;;;;;20.00;18.05;;;12.80;99.90;;;;;;5007859;28;20372;-71
2022/07/08 02:05:26;;;;;;;20.23;18.08;;;12.70;99.90;;;;;;5015030;28;20371;-71
2022/07/08 02:07:53;;;;;;;18.45;16.85;;;12.70;99.90;;;;;;4998734;28;20128;-72
2022/07/08 02:10:20;;;;;;;20.15;17.40;;;12.70;99.90;;;;;;5002210;28;20546;-72
2022/07/08 02:12:47;;;;;;;21.77;17.33;;;12.70;99.90;;;;;;5016974;28;20721;-72
2022/07/08 02:15:13;;;;;;;19.30;17.50;;;12.80;99.90;;;;;;5002208;28;20041;-72
2022/07/08 02:17:42;;;;;;;21.70;17.20;;;12.60;99.90;;;;;;5016084;28;20050;-72
2022/07/08 02:20:11;;;;;;;19.88;17.48;;;12.70;99.90;;;;;;5017905;28;20045;-72
2022/07/08 02:22:38;;;;;;;22.05;17.58;;;12.70;99.90;;;;;;5014073;28;20123;-72
2022/07/08 02:25:05;;;;;;;19.48;17.33;;;12.70;99.90;;;;;;4999273;28;20060;-70
2022/07/08 02:27:32;;;;;;;19.75;17.77;;;12.70;99.90;;;;;;5016540;28;20130;-73
2022/07/08 02:29:59;;;;;;;21.63;18.15;;;12.70;99.90;;;;;;5017365;28;20681;-72
2022/07/08 02:32:26;;;;;;;21.80;18.60;;;12.70;99.90;;;;;;5016377;28;20045;-71
2022/07/08 02:34:53;;;;;;;20.10;18.25;;;12.70;99.90;;;;;;5012946;28;20296;-72
2022/07/08 02:37:20;;;;;;;22.20;18.90;;;12.70;99.90;;;;;;5014988;28;20422;-72
2022/07/08 02:39:47;;;;;;;19.52;17.77;;;12.70;99.90;;;;;;5016961;28;20539;-72
2022/07/08 02:42:14;;;;;;;21.83;18.63;;;12.80;99.90;;;;;;5000114;28;20045;-72
2022/07/08 02:44:41;;;;;;;20.13;18.08;;;12.80;99.90;;;;;;5000134;28;20053;-72
2022/07/08 02:47:08;;;;;;;19.17;17.27;;;12.80;99.90;;;;;;5000400;28;20072;-72
2022/07/08 02:49:35;;;;;;;25.65;17.45;;;12.80;99.90;;;;;;5019572;28;20096;-73
2022/07/08 02:52:02;;;;;;;21.42;18.55;;;12.80;99.90;;;;;;5020417;28;20523;-72
2022/07/08 02:54:29;;;;;;;23.80;17.83;;;12.80;99.90;;;;;;5019571;28;20057;-72
2022/07/08 02:56:56;;;;;;;22.63;17.42;;;12.80;99.90;;;;;;5021145;28;20049;-72
2022/07/08 02:59:23;;;;;;;21.38;19.08;;;12.80;99.90;;;;;;5010451;28;20037;-72
2022/07/08 03:01:50;;;;;;;20.25;17.48;;;12.90;99.90;;;;;;5020943;28;20210;-72
2022/07/08 03:04:17;;;;;;;29.17;18.00;;;12.90;99.90;;;;;;5018323;28;20045;-71
2022/07/08 03:06:44;;;;;;;22.88;17.70;;;12.90;99.90;;;;;;5019324;28;20044;-72
2022/07/08 03:09:11;;;;;;;19.15;17.15;;;12.90;99.90;;;;;;5019541;28;20108;-72
2022/07/08 03:11:38;;;;;;;19.42;17.77;;;12.90;99.90;;;;;;5002058;28;20067;-72
2022/07/08 03:14:05;;;;;;;20.08;17.95;;;12.90;99.90;;;;;;5003137;28;20075;-72
2022/07/08 03:16:32;;;;;;;19.40;17.30;;;12.80;99.90;;;;;;5018761;28;20050;-72
2022/07/08 03:19:00;;;;;;;24.48;17.55;;;12.80;99.90;;;;;;5021121;28;20529;-72
2022/07/08 03:21:27;;;;;;;20.15;16.67;;;12.70;99.90;;;;;;5019550;28;20045;-71
2022/07/08 03:23:54;;;;;;;18.77;17.00;;;12.70;99.90;;;;;;5015975;28;20511;-71
2022/07/08 03:26:20;;;;;;;23.35;17.15;;;12.70;99.90;;;;;;5019586;28;20684;-72
2022/07/08 03:28:47;;;;;;;22.45;17.05;;;12.70;99.90;;;;;;5020002;28;20069;-72
2022/07/08 03:31:14;;;;;;;24.48;17.65;;;12.80;99.90;;;;;;5001358;28;20049;-72
2022/07/08 03:33:41;;;;;;;22.52;17.13;;;12.70;99.90;;;;;;5066748;22;20050;-75
2022/07/08 03:36:08;;;;;;;24.73;18.13;;;12.70;99.90;;;;;;5061928;28;20048;-75
2022/07/08 03:38:35;;;;;;;22.80;18.50;;;12.80;99.90;;;;;;5073758;28;20055;-76
2022/07/08 03:41:21;;;;;;;18.98;17.23;;;12.70;99.90;;;;;;5058996;28;20071;-76
2022/07/08 03:43:49;;;;;;;;;;;12.80;99.90;;;;;;5052838;28;20045;-78
2022/07/08 03:46:16;;;;;;;24.10;17.98;;;12.80;99.90;;;;;;5071164;28;19924;-76
2022/07/08 03:48:43;;;;;;;19.48;17.55;;;12.70;99.90;;;;;;5054074;28;20634;-75
2022/07/08 03:51:10;;;;;;;19.27;17.35;;;12.70;99.90;;;;;;5056239;28;20178;-76
2022/07/08 03:53:36;;;;;;;20.15;17.52;;;12.70;99.90;;;;;;5055074;28;21677;-76
2022/07/08 03:56:05;;;;;;;18.83;17.15;;;12.70;99.90;;;;;;5058237;28;20141;-76
2022/07/08 03:58:33;;;;;;;20.20;17.48;;;12.80;99.90;;;;;;5038065;28;20057;-77
2022/07/08 04:01:00;;;;;;;21.25;19.05;;;12.80;99.90;;;;;;5053929;28;20052;-76
2022/07/08 04:03:27;;;;;;;24.60;18.85;;;12.80;99.90;;;;;;5061051;28;20174;-78
2022/07/08 04:05:54;;;;;;;24.83;18.75;;;12.80;99.90;;;;;;5050449;28;20060;-78
2022/07/08 04:08:21;;;;;;;20.17;18.20;;;12.70;99.90;;;;;;5049769;28;20501;-78
2022/07/08 04:10:48;;;;;;;21.90;18.05;;;12.70;99.90;;;;;;5050872;28;20043;-75
2022/07/08 04:13:14;;;;;;;22.15;17.70;;;12.70;99.90;;;;;;5039776;28;20846;-75
2022/07/08 04:15:47;;;;;;;20.83;18.15;;;12.80;99.90;;;;;;5058990;28;20464;-76
2022/07/08 04:18:14;;;;;;;19.50;17.95;;;12.80;99.90;;;;;;5045069;28;20076;-76
2022/07/08 04:20:42;;;;;;;21.48;18.23;;;12.90;99.90;;;;;;5043511;28;20036;-75
2022/07/08 04:23:08;;;;;;;20.52;18.40;;;12.90;99.90;;;;;;5039026;28;20040;-77
2022/07/08 04:25:35;;;;;;;22.38;18.35;;;12.90;99.90;;;;;;5053994;28;20372;-77
2022/07/08 04:28:02;;;;;;;20.52;18.70;;;12.90;99.90;;;;;;5079043;28;20075;-73
2022/07/08 04:30:29;;;;;;;23.67;19.52;;;12.90;99.90;;;;;;5033771;28;20082;-74
2022/07/08 04:32:56;;;;;;;20.83;17.95;;;12.90;99.90;;;;;;5039105;28;20661;-76
2022/07/08 04:35:23;;;;;;;21.88;18.45;;;12.90;99.90;;;;;;5056432;28;20131;-74
2022/07/08 04:37:50;;;;;;;20.67;18.60;;;12.80;99.90;;;;;;5056248;28;20048;-75
2022/07/08 04:40:17;;;;;;;21.35;18.90;;;12.80;99.90;;;;;;5055669;28;20055;-74
2022/07/08 04:42:44;;;;;;;21.92;18.42;;;12.90;99.90;;;;;;5075517;28;20071;-76
2022/07/08 04:45:11;;;;;;;20.05;18.00;;;12.80;99.90;;;;;;5058825;28;20055;-77
2022/07/08 04:47:38;;;;;;;20.63;18.50;;;12.90;99.90;;;;;;5061761;28;20056;-76
2022/07/08 04:50:05;;;;;;;20.52;17.73;;;12.90;99.90;;;;;;5059788;28;20048;-76
2022/07/08 04:52:32;;;;;;;19.95;17.92;;;12.90;99.90;;;;;;5050652;28;20044;-76
2022/07/08 04:54:59;;;;;;;24.70;18.42;;;12.90;99.90;;;;;;5054612;28;20037;-75
2022/07/08 04:57:26;;;;;;;25.50;18.52;;;12.90;99.90;;;;;;5054446;28;20110;-77
2022/07/08 04:59:53;;;;;;;20.10;18.30;;;13.00;99.90;;;;;;5041124;28;20078;-75
2022/07/08 05:02:19;;;;;;;23.48;18.15;;;12.90;99.90;;;;;;5036028;28;20119;-78
2022/07/08 05:04:46;;;;;;;19.60;17.80;;;12.90;99.90;;;;;;5030515;28;20425;-76
2022/07/08 05:07:13;;;;;;;22.67;17.80;;;13.00;99.90;;;;;;5077657;28;20040;-75
2022/07/08 05:09:40;;;;;;;21.25;18.83;;;13.00;99.90;;;;;;5054303;28;20151;-76
2022/07/08 05:12:07;;;;;;;25.45;19.38;;;13.00;99.90;;;;;;5041645;28;20631;-76
2022/07/08 05:14:34;;;;;;;20.38;18.17;;;13.00;99.90;;;;;;5038440;28;20181;-75
2022/07/08 05:17:01;;;;;;;20.00;17.77;;;13.00;99.90;;;;;;5059776;28;20052;-77
2022/07/08 05:19:28;;;;;;;21.75;18.88;;;13.10;99.90;;;;;;5055895;28;20055;-77
2022/07/08 05:21:55;;;;;;;21.10;18.50;;;13.10;99.90;;;;;;5053188;28;20098;-75
2022/07/08 05:24:21;;;;;;;20.40;18.27;;;13.10;99.90;;;;;;5037249;28;20052;-75
2022/07/08 05:26:48;;;;;;;20.70;18.35;;;13.10;99.90;;;;;;5038608;28;20040;-78
2022/07/08 05:29:16;;;;;;;24.75;18.45;;;13.10;99.90;;;;;;5060314;28;20411;-76
2022/07/08 05:31:43;;;;;;;20.65;18.77;;;13.20;99.90;;;;;;5038805;28;20044;-76
2022/07/08 05:34:10;;;;;;;21.17;19.17;;;13.10;99.90;;;;;;5038852;28;21456;-75
2022/07/08 05:36:37;;;;;;;23.70;18.83;;;13.20;99.90;;;;;;5046175;28;20115;-77
2022/07/08 05:39:03;;;;;;;23.00;19.48;;;13.20;99.90;;;;;;5055080;28;20047;-78
2022/07/08 05:41:30;;;;;;;21.00;19.17;;;13.30;99.90;;;;;;5030312;28;20102;-76
2022/07/08 05:44:00;;;;;;;24.67;19.73;;;13.20;99.90;;;;;;5043142;28;20079;-76
2022/07/08 05:46:27;;;;;;;22.75;19.88;;;13.20;99.90;;;;;;5039612;28;20109;-75
2022/07/08 05:48:54;;;;;;;21.98;19.88;;;13.30;99.90;;;;;;5068897;28;20068;-74
2022/07/08 05:51:20;;;;;;;22.90;19.98;;;13.40;99.90;;;;;;5040789;28;20051;-76
2022/07/08 05:53:47;;;;;;;21.80;19.55;;;13.50;99.90;;;;;;5050754;28;20668;-75
2022/07/08 05:56:14;;;;;;;22.42;19.80;;;13.60;99.90;;;;;;5056052;28;20070;-77
2022/07/08 05:58:41;;;;;;;28.38;21.17;;;13.70;99.90;;;;;;5043304;28;20056;-76
2022/07/08 06:01:07;;;;;;;21.95;20.25;;;13.80;99.90;;;;;;5037899;28;20064;-75
2022/07/08 06:03:34;;;;;;;22.77;20.60;;;13.90;99.90;;;;;;5038139;28;20056;-75
2022/07/08 06:06:01;;;;;;;21.60;20.05;;;13.90;99.90;;;;;;5054496;28;20056;-75
2022/07/08 06:08:28;;;;;;;22.92;20.77;;;14.00;99.90;;;;;;5074311;28;20048;-74
2022/07/08 06:10:56;;;;;;;22.17;20.45;;;14.00;99.90;;;;;;5038645;28;20040;-75
2022/07/08 06:13:23;;;;;;;22.63;20.77;;;13.90;99.90;;;;;;5057921;28;20042;-76
2022/07/08 06:15:50;;;;;;;22.38;20.65;;;13.80;99.90;;;;;;5036895;28;20063;-75
2022/07/08 06:18:17;;;;;;;23.60;21.42;;;13.80;99.90;;;;;;5045710;28;20656;-73
2022/07/08 06:20:44;;;;;;;22.27;20.05;;;13.70;99.90;;;;;;5041422;28;20109;-74
2022/07/08 06:23:11;;;;;;;22.38;20.35;;;13.90;99.90;;;;;;5055957;28;20512;-75
2022/07/08 06:25:38;;;;;;;22.83;20.55;;;14.00;99.90;;;;;;5053956;28;20497;-74
2022/07/08 06:28:05;;;;;;;23.13;20.80;;;14.00;99.90;;;;;;5055240;28;20193;-77
2022/07/08 06:30:32;;;;;;;23.80;21.83;;;14.20;99.90;;;;;;5053055;28;20052;-76
2022/07/08 06:32:59;;;;;;;22.75;20.60;;;14.20;99.90;;;;;;5050931;28;20059;-76
2022/07/08 06:35:27;;;;;;;23.40;21.17;;;14.30;99.90;;;;;;5035856;28;20075;-75
2022/07/08 06:37:53;;;;;;;22.90;20.88;;;14.50;99.90;;;;;;5036260;28;20057;-76
2022/07/08 06:40:21;;;;;;;22.98;21.05;;;14.70;99.90;;;;;;5029264;28;20498;-75
2022/07/08 06:42:51;;;;;;;23.20;20.88;;;14.90;99.90;;;;;;5039412;28;20176;-75
2022/07/08 06:45:17;;;;;;;22.90;21.05;;;14.80;99.90;;;;;;5027479;28;20048;-75
2022/07/08 06:47:44;;;;;;;22.75;21.02;;;15.00;99.90;;;;;;5054811;28;20040;-74
2022/07/08 06:50:11;;;;;;;22.90;21.17;;;15.10;99.90;;;;;;5037199;28;20052;-77
2022/07/08 06:52:39;;;;;;;21.63;20.02;;;15.20;99.90;;;;;;5055362;28;20440;-74
2022/07/08 06:55:06;;;;;;;22.90;21.15;;;15.30;99.90;;;;;;5054584;28;20486;-75
2022/07/08 06:57:33;;;;;;;22.73;20.40;;;15.30;99.90;;;;;;5054121;28;20501;-74
2022/07/08 06:59:59;;;;;;;21.83;20.35;;;15.30;99.90;;;;;;5050899;28;20044;-74
2022/07/08 07:02:46;;;;;;;22.85;21.05;;;15.10;99.90;;;;;;5058044;28;20600;-75
2022/07/08 07:05:13;;;;;;;22.13;20.38;;;14.80;99.90;;;;;;5053511;28;20135;-74
2022/07/08 07:07:40;;;;;;;22.10;20.17;;;14.90;99.90;;;;;;5059186;28;20632;-74
2022/07/08 07:10:07;;;;;;;21.92;20.13;;;15.10;99.90;;;;;;5075887;28;20085;-76
2022/07/08 07:12:33;;;;;;;23.90;21.58;;;14.80;99.90;;;;;;5035743;28;20082;-74
2022/07/08 07:15:01;;;;;;;22.02;20.02;;;14.80;99.90;;;;;;5053225;28;20049;-77
2022/07/08 07:17:28;;;;;;;22.75;20.35;;;14.70;99.90;;;;;;5033684;28;20041;-73
2022/07/08 07:19:57;;;;;;;21.70;19.70;;;14.70;99.90;;;;;;5073316;28;20071;-75
2022/07/08 07:22:27;;;;;;;22.67;20.60;;;14.90;99.90;;;;;;5054216;28;20075;-75
2022/07/08 07:24:54;;;;;;;21.45;19.45;;;15.00;99.90;;;;;;5029524;28;20079;-77
2022/07/08 07:27:20;;;;;;;23.20;21.40;;;15.20;99.90;;;;;;5039629;28;20490;-74
2022/07/08 07:29:47;;;;;;;22.45;20.33;;;15.30;99.90;;;;;;5055351;28;20044;-73
2022/07/08 07:32:14;;;;;;;21.48;19.48;;;15.50;99.90;;;;;;5036252;28;20794;-76
2022/07/08 07:34:41;;;;;;;21.90;19.88;;;15.90;99.90;;;;;;5039713;28;20142;-75
2022/07/08 07:37:08;;;;;;;22.55;20.25;;;15.80;99.90;;;;;;5060610;28;20048;-76
2022/07/08 07:39:35;;;;;;;21.92;20.08;;;15.80;99.90;;;;;;5058621;28;20355;-76
2022/07/08 07:42:02;;;;;;;22.33;20.10;;;16.20;99.90;;;;;;5078340;28;20161;-76
2022/07/08 07:44:29;;;;;;;21.00;19.27;;;16.60;99.90;;;;;;5058694;28;20615;-75
2022/07/08 07:46:56;;;;;;;21.95;19.83;;;16.60;99.90;;;;;;5039473;28;20067;-76
2022/07/08 07:49:23;;;;;;;22.67;20.73;;;16.40;99.90;;;;;;5065025;28;20060;-76
2022/07/08 07:51:49;;;;;;;21.75;19.95;;;16.30;99.90;;;;;;5074366;28;20045;-74
2022/07/08 07:54:16;;;;;;;23.33;20.88;;;16.20;99.90;;;;;;5057622;28;20052;-76
2022/07/08 07:56:43;;;;;;;22.70;20.65;;;16.10;99.90;;;;;;5052959;28;20047;-75
2022/07/08 07:59:10;;;;;;;22.38;20.20;;;16.10;99.90;;;;;;5055534;28;21025;-75
2022/07/08 08:01:37;;;;;;;22.20;20.25;;;16.10;99.90;;;;;;5055955;28;21075;-76
2022/07/08 08:04:04;;;;;;;21.17;19.50;;;16.10;99.90;;;;;;5075995;28;20086;-74
2022/07/08 08:06:30;;;;;;;22.00;20.33;;;16.20;99.90;;;;;;5073465;28;20050;-75
2022/07/08 08:08:57;;;;;;;22.98;21.23;;;16.60;99.90;;;;;;5055902;28;20036;-75
2022/07/08 08:11:24;;;;;;;22.25;20.30;;;17.00;99.90;;;;;;5059602;28;20512;-74
2022/07/08 08:13:51;;;;;;;23.23;21.00;;;17.40;99.90;;;;;;5052983;28;20047;-76
2022/07/08 08:16:18;;;;;;;23.45;21.45;;;17.40;99.90;;;;;;5077337;28;20161;-76
2022/07/08 08:18:44;;;;;;;21.25;19.45;;;17.50;99.90;;;;;;5037396;28;20037;-75
2022/07/08 08:21:11;;;;;;;21.75;19.83;;;17.80;99.90;;;;;;5071206;28;20069;-75
2022/07/08 08:23:38;;;;;;;21.55;19.67;;;17.80;99.90;;;;;;5056952;28;20040;-75
2022/07/08 08:26:05;;;;;;;22.23;20.10;;;17.40;99.90;;;;;;5056042;28;20110;-74
2022/07/08 08:28:32;;;;;;;21.60;19.77;;;17.20;99.90;;;;;;5058315;28;20460;-75
2022/07/08 08:30:59;;;;;;;22.42;20.08;;;17.00;99.90;;;;;;5047413;28;20048;-76
2022/07/08 08:33:26;;;;;;;22.55;20.20;;;16.80;99.90;;;;;;5058190;28;20638;-76
2022/07/08 08:35:53;;;;;;;21.00;19.40;;;16.90;99.90;;;;;;5071463;28;20517;-74
2022/07/08 08:38:20;;;;;;;21.88;20.25;;;17.00;99.90;;;;;;5039817;28;20404;-76
2022/07/08 08:40:49;;;;;;;21.30;19.55;;;17.00;99.90;;;;;;5032026;28;20044;-76
2022/07/08 08:43:16;;;;;;;22.50;20.58;;;17.20;99.90;;;;;;5058719;28;20052;-75
2022/07/08 08:45:44;;;;;;;21.17;19.25;;;17.50;99.90;;;;;;5053296;28;20036;-78
2022/07/08 08:48:12;;;;;;;19.98;18.58;;;18.00;99.90;;;;;;5062492;28;20293;-75
2022/07/08 08:50:53;;;;;;;22.25;19.98;;;18.10;99.90;;;;;;5072749;28;20052;-76
2022/07/08 08:53:25;;;;;;;21.52;19.38;;;18.40;99.90;;;;;;5057110;28;20048;-79
2022/07/08 08:55:55;;;;;;;22.42;20.35;;;18.50;99.90;;;;;;5071685;28;20057;-74
2022/07/08 08:58:22;;;;;;;22.63;20.63;;;18.10;99.90;;;;;;5042738;28;20129;-77
2022/07/08 09:00:49;;;;;;;23.33;21.33;;;17.70;99.90;;;;;;5054656;28;20052;-76
2022/07/08 09:03:16;;;;;;;21.15;19.65;;;17.60;99.90;;;;;;5055103;28;20396;-76
2022/07/08 09:05:44;;;;;;;20.98;19.00;;;18.10;99.90;;;;;;5052041;28;20044;-74
2022/07/08 09:08:10;;;;;;;20.20;18.30;;;18.70;99.90;;;;;;5058671;28;20059;-77
2022/07/08 09:10:37;;;;;;;20.40;18.60;;;18.90;99.90;;;;;;5074126;28;20059;-77
2022/07/08 09:13:07;;;;;;;21.98;20.15;;;18.60;99.90;;;;;;5074515;28;20086;-78
2022/07/08 09:15:43;;;;;;;22.05;20.13;;;18.50;99.90;;;;;;5056951;28;20040;-75
2022/07/08 09:18:15;;;;;;;22.00;20.30;;;18.80;99.90;;;;;;5060294;28;20445;-74
2022/07/08 09:29:23;;;;;;;21.67;20.08;;;18.30;99.90;;;;;;5071321;28;20073;-75
2022/07/08 09:31:52;;;;;;;22.30;20.45;;;18.70;99.90;;;;;;5033762;28;20095;-75
2022/07/08 09:34:22;;;;;;;21.73;20.15;;;19.00;99.90;;;;;;5066548;28;20437;-76
2022/07/08 09:36:49;;;;;;;21.83;20.15;;;19.30;99.90;;;;;;5051396;28;20044;-75
2022/07/08 09:39:27;;;;;;;21.73;20.00;;;19.70;99.90;;;;;;5055234;28;20044;-74
2022/07/08 09:41:54;;;;;;;22.30;20.55;;;19.80;99.90;;;;;;5034496;28;20041;-76
2022/07/08 09:44:25;;;;;;;21.55;20.13;;;19.90;99.90;;;;;;5052530;28;20047;-75
2022/07/08 09:46:52;;;;;;;22.85;20.85;;;19.60;99.90;;;;;;5053721;28;20032;-76
2022/07/08 09:49:30;;;;;;;21.75;20.08;;;19.90;99.90;;;;;;5060530;28;20566;-76
2022/07/08 09:51:57;;;;;;;22.33;20.63;;;20.00;99.90;;;;;;5036146;28;20429;-76
2022/07/08 09:54:26;;;;;;;22.95;20.88;;;20.10;99.90;;;;;;5074229;28;20109;-76
2022/07/08 09:57:01;;;;;;;22.77;20.95;;;19.90;99.90;;;;;;5037503;28;20139;-75
2022/07/08 09:59:28;;;;;;;;;;;20.20;99.90;;;;;;5081361;28;20056;-75
2022/07/08 10:01:55;;;;;;;23.85;21.70;;;20.20;99.90;;;;;;5053056;28;19969;-74
2022/07/08 10:04:23;;;;;;;22.52;20.80;;;20.00;99.90;;;;;;5054882;28;20497;-76
2022/07/08 10:06:52;;;;;;;22.60;20.73;;;20.40;99.90;;;;;;5071734;28;20533;-73
2022/07/08 10:09:20;;;;;;;22.35;20.75;;;20.40;99.90;;;;;;5071303;28;20367;-75
2022/07/08 10:11:48;;;;;;;22.67;20.73;;;20.50;99.90;;;;;;5072958;28;20044;-75
2022/07/08 10:14:16;;;;;;;22.42;20.58;;;20.80;99.90;;;;;;5069696;28;20071;-75
2022/07/08 10:16:46;;;;;;;22.58;20.98;;;20.70;99.90;;;;;;5052087;28;20036;-75
2022/07/08 10:19:27;;;;;;;22.65;20.88;;;20.20;99.90;;;;;;5061025;28;20070;-75
2022/07/08 10:22:03;;;;;;;22.73;20.98;;;20.10;99.90;;;;;;5039356;28;20048;-76
2022/07/08 10:24:32;;;;;;;24.90;22.65;;;20.20;99.90;;;;;;5051930;28;20044;-76
2022/07/08 10:27:01;;;;;;;23.92;21.70;;;20.30;99.90;;;;;;5044589;28;20044;-75
2022/07/08 10:29:29;;;;;;;23.38;21.27;;;20.50;99.90;;;;;;5060946;28;20051;-76
2022/07/08 10:31:58;;;;;;;22.50;20.60;;;20.30;99.90;;;;;;5057310;28;20099;-75
2022/07/08 10:34:34;;;;;;;21.55;19.85;;;20.70;99.90;;;;;;5074060;28;20082;-75
2022/07/08 10:37:02;;;;;;;20.85;19.02;;;20.70;99.90;;;;;;5055805;28;20033;-75
2022/07/08 10:39:36;;;;;;;23.10;21.00;;;20.40;99.90;;;;;;5048201;28;20190;-75
2022/07/08 10:42:04;;;;;;;23.50;21.30;;;19.80;99.90;;;;;;5070245;28;20054;-75
2022/07/08 10:44:46;;;;;;;22.63;20.80;;;20.10;99.90;;;;;;5055230;28;20048;-74
2022/07/08 10:47:15;;;;;;;21.52;19.83;;;20.40;99.90;;;;;;5037611;28;20052;-74
2022/07/08 10:49:44;;;;;;;22.27;19.85;;;20.50;99.90;;;;;;5055635;28;20064;-74
2022/07/08 10:52:15;;;;;;;22.65;20.88;;;20.40;99.90;;;;;;5057115;28;20463;-74
2022/07/08 10:54:43;;;;;;;22.95;20.80;;;20.50;99.90;;;;;;5047753;28;20048;-73
2022/07/08 10:57:25;;;;;;;23.05;21.25;;;20.00;99.90;;;;;;5049755;28;20056;-76
2022/07/08 11:00:06;;;;;;;22.30;20.65;;;19.90;99.90;;;;;;5050028;28;20040;-71
2022/07/08 11:02:41;;;;;;;22.30;20.58;;;20.20;99.90;;;;;;5055855;28;20416;-78
2022/07/08 11:05:35;;;;;;;23.13;20.98;;;20.50;99.90;;;;;;5073826;28;20135;-74
2022/07/08 11:08:20;;;;;;;22.45;20.60;;;20.50;99.90;;;;;;5054865;28;20094;-74
2022/07/08 11:10:51;;;;;;;21.60;20.10;;;20.60;99.90;;;;;;5056494;28;20056;-75
2022/07/08 11:13:23;;;;;;;22.30;20.25;;;20.40;99.90;;;;;;5071712;28;20086;-76
2022/07/08 11:15:50;;;;;;;22.95;21.15;;;20.30;99.90;;;;;;5072840;28;20055;-77
2022/07/08 11:18:22;;;;;;;23.33;21.40;;;20.30;99.90;;;;;;5041397;28;20547;-78
2022/07/08 11:20:50;;;;;;;22.92;20.80;;;20.00;99.90;;;;;;5054779;28;20048;-75
2022/07/08 11:23:20;;;;;;;23.95;21.65;;;20.10;99.90;;;;;;5056584;28;20044;-80
2022/07/08 11:25:58;;;;;;;22.25;20.48;;;20.20;99.90;;;;;;5059064;28;20561;-78
2022/07/08 11:28:26;;;;;;;22.42;20.70;;;20.50;99.90;;;;;;5034109;28;20048;-80
2022/07/08 11:30:54;;;;;;;22.58;20.90;;;20.50;99.90;;;;;;5068028;28;20158;-75
2022/07/08 11:33:41;;;;;;;23.42;21.08;;;20.40;99.90;;;;;;5058088;28;20049;-78
2022/07/08 11:36:27;;;;;;;23.05;21.15;;;20.30;99.90;;;;;;5056390;28;20635;-77
2022/07/08 11:38:54;;;;;;;24.02;21.77;;;20.30;99.90;;;;;;5055255;28;20564;-76
2022/07/08 11:41:21;;;;;;;22.88;21.17;;;20.30;99.90;;;;;;5061357;28;20047;-80
2022/07/08 11:43:49;;;;;;;22.65;21.05;;;20.60;99.90;;;;;;5054296;28;20138;-79
2022/07/08 11:46:17;;;;;;;22.52;20.70;;;20.80;99.90;;;;;;5051334;28;20032;-77
2022/07/08 11:48:44;;;;;;;23.10;20.92;;;20.70;99.90;;;;;;5052003;28;20056;-78
2022/07/08 11:51:16;;;;;;;22.33;20.75;;;20.40;99.90;;;;;;5064524;28;20048;-77
2022/07/08 11:53:44;;;;;;;24.35;22.17;;;20.60;99.90;;;;;;5037019;28;20048;-77
2022/07/08 11:56:11;;;;;;;23.55;21.95;;;20.40;99.90;;;;;;5053935;28;20078;-75
2022/07/08 11:58:40;;;;;;;23.65;21.65;;;20.50;99.90;;;;;;5057523;28;20056;-75
2022/07/08 12:01:07;;;;;;;21.88;20.40;;;20.20;99.90;;;;;;5061038;28;20040;-79
2022/07/08 12:03:35;;;;;;;23.40;21.30;;;20.20;99.90;;;;;;5057983;28;20066;-76
2022/07/08 12:06:03;;;;;;;23.48;21.42;;;20.40;99.90;;;;;;5051972;28;20586;-75
2022/07/08 12:08:41;;;;;;;22.92;21.02;;;20.40;99.90;;;;;;5045161;28;20048;-76
2022/07/08 12:11:21;;;;;;;22.30;20.80;;;20.30;99.90;;;;;;5056040;28;20137;-76
2022/07/08 12:13:50;;;;;;;22.83;21.27;;;20.30;99.90;;;;;;5059786;28;20464;-76
2022/07/08 12:16:30;;;;;;;22.67;20.70;;;20.50;99.90;;;;;;5032436;28;20044;-75
2022/07/08 12:18:59;;;;;;;22.70;20.77;;;20.80;99.90;;;;;;5071109;28;20060;-76
2022/07/08 12:21:26;;;;;;;22.98;21.15;;;20.70;99.90;;;;;;5072121;28;20044;-77
2022/07/08 12:24:04;;;;;;;23.10;21.05;;;20.90;99.90;;;;;;5069578;28;20047;-75
2022/07/08 12:26:35;;;;;;;23.00;21.23;;;20.90;99.90;;;;;;5035142;28;20120;-79
2022/07/08 12:29:13;;;;;;;23.45;21.23;;;21.10;99.90;;;;;;5037609;28;20400;-75
2022/07/08 12:31:41;;;;;;;22.92;21.23;;;21.10;99.90;;;;;;5050281;28;20098;-77
2022/07/08 12:34:09;;;;;;;23.70;21.50;;;20.80;99.90;;;;;;5071869;28;20040;-76
2022/07/08 12:36:36;;;;;;;23.15;21.17;;;20.80;99.90;;;;;;5055528;28;20091;-78
2022/07/08 12:39:27;;;;;;;22.67;20.98;;;20.80;99.90;;;;;;5053674;28;20652;-74
2022/07/08 12:42:05;;;;;;;23.15;21.23;;;20.70;99.90;;;;;;5055353;28;20039;-77